Time;durP1;ratioP1;P1;durP2;ratioP2;P2;SDS_P1;SDS_P2;PMS_P1;PMS_P2;Temp;Humidity;BMP_temperature;BMP_pressure;BME280_temperature;BME280_humidity;BME280_pressure;Samples;Min_cycle;Max_cycle;Signal;HPM_P1;HPM_P2
2023/06/08 00:00:22;;;;;;;6.07;3.53;;;;;;;;;;5103449;28;20050;-66
2023/06/08 00:02:49;;;;;;;7.20;3.63;;;;;;;;;;5089689;28;20055;-66
2023/06/08 00:05:18;;;;;;;5.15;3.10;;;;;;;;;;5107677;28;20077;-66
2023/06/08 00:07:48;;;;;;;6.75;3.42;;;;;;;;;;5106157;28;20054;-66
2023/06/08 00:10:15;;;;;;;6.45;3.33;;;;;;;;;;5101686;28;20512;-66
2023/06/08 00:12:42;;;;;;;7.80;3.58;;;;;;;;;;5108505;28;20819;-66
2023/06/08 00:15:13;;;;;;;9.05;3.90;;;;;;;;;;5109427;28;20055;-66
2023/06/08 00:17:40;;;;;;;6.18;3.85;;;;;;;;;;5104907;28;20486;-66
2023/06/08 00:20:09;;;;;;;5.80;3.55;;;;;;;;;;5098977;28;20164;-66
2023/06/08 00:22:36;;;;;;;8.45;3.90;;;;;;;;;;5103419;27;20048;-66
2023/06/08 00:25:06;;;;;;;8.25;3.50;;;;;;;;;;5107257;28;20426;-66
2023/06/08 00:27:33;;;;;;;7.10;3.22;;;;;;;;;;5090319;28;20048;-66
2023/06/08 00:30:00;;;;;;;5.32;3.10;;;;;;;;;;5105835;28;20825;-66
2023/06/08 00:32:27;;;;;;;10.50;3.90;;;;;;;;;;5091384;28;20410;-66
2023/06/08 00:34:54;;;;;;;7.65;3.35;;;;;;;;;;5093028;28;20134;-66
2023/06/08 00:37:22;;;;;;;6.47;2.90;;;;;;;;;;5103427;28;20058;-66
2023/06/08 00:39:49;;;;;;;8.27;3.20;;;;;;;;;;5104584;28;20066;-66
2023/06/08 00:42:18;;;;;;;6.22;3.50;;;;;;;;;;5105390;28;20043;-66
2023/06/08 00:44:45;;;;;;;8.02;4.30;;;;;;;;;;5105872;28;20075;-66
2023/06/08 00:47:12;;;;;;;6.13;3.20;;;;;;;;;;5103508;28;20048;-66
2023/06/08 00:49:40;;;;;;;7.15;3.50;;;;;;;;;;5105899;28;20078;-66
2023/06/08 00:52:08;;;;;;;9.48;4.18;;;;;;;;;;5106485;27;20051;-66
2023/06/08 00:54:36;;;;;;;6.00;4.50;;;;;;;;;;5108809;28;20043;-66
2023/06/08 00:57:05;;;;;;;7.40;4.70;;;;;;;;;;5106559;28;20386;-66
2023/06/08 00:59:34;;;;;;;8.93;4.88;;;;;;;;;;5105056;28;20044;-66
2023/06/08 01:02:04;;;;;;;10.30;5.15;;;;;;;;;;5105125;28;20051;-66
2023/06/08 01:04:35;;;;;;;9.38;5.32;;;;;;;;;;5104700;28;20051;-66
2023/06/08 01:07:14;;;;;;;9.90;5.22;;;;;;;;;;5110293;28;20479;-66
2023/06/08 01:09:44;;;;;;;8.75;4.70;;;;;;;;;;5098133;28;20044;-66
2023/06/08 01:12:17;;;;;;;9.15;4.15;;;;;;;;;;5099810;28;20082;-66
2023/06/08 01:14:52;;;;;;;6.87;3.73;;;;;;;;;;5103668;28;20040;-66
2023/06/08 01:17:23;;;;;;;8.55;3.38;;;;;;;;;;5105114;27;20147;-66
2023/06/08 01:19:59;;;;;;;9.35;3.45;;;;;;;;;;5108711;28;20533;-66
2023/06/08 01:22:29;;;;;;;6.13;3.20;;;;;;;;;;5108068;28;20048;-66
2023/06/08 01:25:01;;;;;;;4.85;2.85;;;;;;;;;;5096997;28;20441;-66
2023/06/08 01:27:32;;;;;;;5.43;2.83;;;;;;;;;;5104839;28;20511;-66
2023/06/08 01:29:59;;;;;;;8.15;3.15;;;;;;;;;;5105910;28;20044;-66
2023/06/08 01:32:26;;;;;;;6.65;3.13;;;;;;;;;;5106717;28;20050;-66
2023/06/08 01:34:53;;;;;;;6.50;3.05;;;;;;;;;;5100306;28;20044;-66
2023/06/08 01:37:25;;;;;;;5.70;3.00;;;;;;;;;;5099407;28;20074;-66
2023/06/08 01:39:56;;;;;;;5.65;3.13;;;;;;;;;;5104225;28;20134;-66
2023/06/08 01:42:26;;;;;;;6.45;3.08;;;;;;;;;;5105516;28;20131;-66
2023/06/08 01:44:57;;;;;;;7.78;3.33;;;;;;;;;;5081469;28;20063;-66
2023/06/08 01:47:26;;;;;;;8.68;3.50;;;;;;;;;;5101751;28;20402;-66
2023/06/08 01:49:54;;;;;;;6.00;3.40;;;;;;;;;;5104508;28;20048;-66
2023/06/08 01:52:22;;;;;;;8.23;3.72;;;;;;;;;;5098129;28;20048;-66
2023/06/08 01:54:49;;;;;;;10.10;3.08;;;;;;;;;;5099953;28;20494;-66
2023/06/08 01:57:16;;;;;;;5.10;2.60;;;;;;;;;;5109265;28;20596;-66
2023/06/08 01:59:45;;;;;;;8.65;2.60;;;;;;;;;;5089267;28;20047;-66
2023/06/08 02:02:12;;;;;;;6.93;2.67;;;;;;;;;;5105735;28;20043;-66
2023/06/08 02:04:40;;;;;;;9.85;3.20;;;;;;;;;;5107708;28;20056;-66
2023/06/08 02:07:07;;;;;;;5.25;2.75;;;;;;;;;;5106957;28;20086;-66
2023/06/08 02:09:34;;;;;;;7.60;3.10;;;;;;;;;;5103490;28;20051;-66
2023/06/08 02:12:06;;;;;;;8.85;3.25;;;;;;;;;;5104673;28;20130;-66
2023/06/08 02:14:33;;;;;;;9.13;3.67;;;;;;;;;;5104496;28;20056;-66
2023/06/08 02:17:03;;;;;;;6.15;3.03;;;;;;;;;;5101091;28;20051;-66
2023/06/08 02:19:31;;;;;;;8.00;3.33;;;;;;;;;;5105597;28;20122;-66
2023/06/08 02:21:59;;;;;;;4.75;2.88;;;;;;;;;;5106854;28;20135;-66
2023/06/08 02:24:26;;;;;;;4.95;3.08;;;;;;;;;;5111454;28;20478;-66
2023/06/08 02:26:54;;;;;;;8.18;3.40;;;;;;;;;;5107308;27;20048;-66
2023/06/08 02:29:22;;;;;;;6.95;3.97;;;;;;;;;;5107826;28;20054;-66
2023/06/08 02:31:49;;;;;;;6.70;3.10;;;;;;;;;;5108335;28;20521;-66
2023/06/08 02:34:17;;;;;;;6.25;3.13;;;;;;;;;;5106183;28;20062;-66
2023/06/08 02:36:47;;;;;;;7.40;3.53;;;;;;;;;;5082818;28;20565;-66
2023/06/08 02:39:14;;;;;;;8.80;3.33;;;;;;;;;;5109818;28;20054;-66
2023/06/08 02:41:42;;;;;;;7.43;3.92;;;;;;;;;;5105503;28;20044;-66
2023/06/08 02:44:09;;;;;;;8.40;3.85;;;;;;;;;;5108836;28;20055;-66
2023/06/08 02:46:37;;;;;;;8.13;3.50;;;;;;;;;;5110836;28;20498;-66
2023/06/08 02:49:04;;;;;;;8.75;3.60;;;;;;;;;;5106023;28;20040;-66
2023/06/08 02:51:33;;;;;;;6.45;3.60;;;;;;;;;;5114871;27;20036;-66
2023/06/08 02:54:00;;;;;;;10.77;3.72;;;;;;;;;;5108175;28;20103;-66
2023/06/08 02:56:28;;;;;;;7.53;3.63;;;;;;;;;;5110601;27;20416;-66
2023/06/08 02:58:56;;;;;;;9.35;3.97;;;;;;;;;;5098508;28;20423;-66
2023/06/08 03:01:25;;;;;;;7.88;4.40;;;;;;;;;;5107271;28;20044;-66
2023/06/08 03:03:52;;;;;;;7.60;4.32;;;;;;;;;;5101750;28;20047;-66
2023/06/08 03:06:19;;;;;;;8.30;4.03;;;;;;;;;;5109871;27;20130;-66
2023/06/08 03:08:48;;;;;;;10.25;4.28;;;;;;;;;;5110561;28;20595;-66
2023/06/08 03:11:16;;;;;;;8.02;4.00;;;;;;;;;;5110655;28;20043;-66
2023/06/08 03:13:43;;;;;;;10.35;4.30;;;;;;;;;;5111572;28;20054;-66
2023/06/08 03:16:10;;;;;;;7.50;4.18;;;;;;;;;;5108470;28;20055;-66
2023/06/08 03:18:39;;;;;;;10.55;4.63;;;;;;;;;;5104499;27;20492;-66
2023/06/08 03:21:07;;;;;;;10.80;4.40;;;;;;;;;;5106602;28;20517;-66
2023/06/08 03:23:35;;;;;;;8.95;4.00;;;;;;;;;;5091372;28;20101;-66
2023/06/08 03:26:04;;;;;;;9.25;4.20;;;;;;;;;;5105862;27;20047;-66
2023/06/08 03:28:31;;;;;;;13.05;3.83;;;;;;;;;;5103745;27;20043;-66
2023/06/08 03:30:59;;;;;;;9.93;3.97;;;;;;;;;;5106522;27;20410;-66
2023/06/08 03:33:27;;;;;;;10.05;4.00;;;;;;;;;;5101836;28;20440;-66
2023/06/08 03:35:54;;;;;;;6.32;3.70;;;;;;;;;;5110725;27;20071;-66
2023/06/08 03:38:21;;;;;;;9.40;3.85;;;;;;;;;;5108032;28;20048;-66
2023/06/08 03:40:49;;;;;;;6.40;3.30;;;;;;;;;;5108354;28;20047;-66
2023/06/08 03:43:17;;;;;;;9.05;3.33;;;;;;;;;;5109124;28;20051;-66
2023/06/08 03:45:44;;;;;;;6.82;3.22;;;;;;;;;;5100925;28;20054;-66
2023/06/08 03:48:12;;;;;;;5.72;2.88;;;;;;;;;;5102444;27;20051;-66
2023/06/08 03:50:39;;;;;;;8.05;3.25;;;;;;;;;;5105931;27;20046;-66
2023/06/08 03:53:06;;;;;;;6.40;2.85;;;;;;;;;;5108124;28;20047;-66
2023/06/08 03:55:34;;;;;;;5.60;2.75;;;;;;;;;;5108828;28;20036;-66
2023/06/08 03:58:01;;;;;;;7.40;2.67;;;;;;;;;;5093879;28;20316;-66
2023/06/08 04:00:30;;;;;;;10.80;3.42;;;;;;;;;;5107630;28;20101;-66
2023/06/08 04:02:57;;;;;;;9.82;3.17;;;;;;;;;;5080956;28;20055;-66
2023/06/08 04:05:24;;;;;;;6.28;2.70;;;;;;;;;;5105282;28;20075;-66
2023/06/08 04:07:51;;;;;;;7.78;2.67;;;;;;;;;;5104804;28;20048;-66
2023/06/08 04:10:19;;;;;;;5.07;2.38;;;;;;;;;;5108178;28;20048;-66
2023/06/08 04:12:46;;;;;;;6.07;2.40;;;;;;;;;;5104896;28;20081;-66
2023/06/08 04:15:13;;;;;;;5.18;2.45;;;;;;;;;;5105468;28;20578;-66
2023/06/08 04:17:43;;;;;;;6.78;2.60;;;;;;;;;;5104576;28;20051;-66
2023/06/08 04:20:12;;;;;;;6.20;2.70;;;;;;;;;;5105290;28;20243;-66
2023/06/08 04:22:39;;;;;;;8.27;2.80;;;;;;;;;;5102496;28;20068;-66
2023/06/08 04:25:06;;;;;;;5.45;2.60;;;;;;;;;;5109069;28;20487;-66
2023/06/08 04:27:34;;;;;;;5.60;2.78;;;;;;;;;;5104385;28;20498;-65
2023/06/08 04:30:02;;;;;;;8.27;2.70;;;;;;;;;;5106227;28;20470;-66
2023/06/08 04:32:29;;;;;;;5.53;2.70;;;;;;;;;;5103872;28;20492;-66
2023/06/08 04:34:58;;;;;;;5.18;2.50;;;;;;;;;;5105609;28;20054;-66
2023/06/08 04:37:26;;;;;;;7.53;2.13;;;;;;;;;;5102458;28;20047;-66
2023/06/08 04:39:53;;;;;;;6.93;2.40;;;;;;;;;;5109775;28;20134;-66
2023/06/08 04:42:21;;;;;;;5.05;2.25;;;;;;;;;;5107020;28;20036;-66
2023/06/08 04:44:49;;;;;;;8.02;2.47;;;;;;;;;;5106298;28;20052;-66
2023/06/08 04:47:17;;;;;;;5.03;2.28;;;;;;;;;;5104212;28;20063;-66
2023/06/08 04:49:44;;;;;;;8.68;2.13;;;;;;;;;;5106771;28;20074;-66
2023/06/08 04:52:16;;;;;;;4.78;2.15;;;;;;;;;;5097605;28;20040;-66
2023/06/08 04:54:44;;;;;;;5.57;2.20;;;;;;;;;;5101509;27;20051;-66
2023/06/08 04:57:15;;;;;;;5.80;1.98;;;;;;;;;;5086606;28;20066;-66
2023/06/08 04:59:42;;;;;;;5.25;1.90;;;;;;;;;;5106377;28;20079;-66
2023/06/08 05:02:10;;;;;;;4.68;1.83;;;;;;;;;;5107589;28;20051;-66
2023/06/08 05:04:37;;;;;;;4.28;2.00;;;;;;;;;;5084145;28;20495;-66
2023/06/08 05:07:04;;;;;;;6.55;2.03;;;;;;;;;;5099696;28;20046;-64
2023/06/08 05:09:33;;;;;;;5.30;2.00;;;;;;;;;;5091461;28;20059;-65
2023/06/08 05:12:00;;;;;;;4.72;2.30;;;;;;;;;;5107297;27;20517;-65
2023/06/08 05:14:27;;;;;;;4.82;2.17;;;;;;;;;;5106645;28;20036;-65
2023/06/08 05:16:55;;;;;;;4.22;1.90;;;;;;;;;;5098587;28;20062;-65
2023/06/08 05:19:22;;;;;;;6.72;2.67;;;;;;;;;;5105520;28;20044;-64
2023/06/08 05:21:49;;;;;;;7.05;2.45;;;;;;;;;;5107606;28;20047;-64
2023/06/08 05:24:18;;;;;;;8.57;2.40;;;;;;;;;;5107082;28;20047;-65
2023/06/08 05:26:47;;;;;;;6.15;2.25;;;;;;;;;;5107747;28;20517;-64
2023/06/08 05:29:14;;;;;;;7.43;2.25;;;;;;;;;;5109429;27;20398;-64
2023/06/08 05:31:41;;;;;;;9.77;2.05;;;;;;;;;;5100739;28;20047;-64
2023/06/08 05:34:08;;;;;;;7.88;2.30;;;;;;;;;;5099552;28;20442;-64
2023/06/08 05:36:37;;;;;;;6.60;2.25;;;;;;;;;;5104195;28;20051;-64
2023/06/08 05:39:04;;;;;;;9.82;3.33;;;;;;;;;;5105296;28;20054;-65
2023/06/08 05:41:32;;;;;;;4.40;2.15;;;;;;;;;;5105482;28;20056;-64
2023/06/08 05:44:00;;;;;;;10.20;2.65;;;;;;;;;;5101815;28;20035;-65
2023/06/08 05:46:27;;;;;;;8.23;2.33;;;;;;;;;;5104691;28;20473;-65
2023/06/08 05:48:55;;;;;;;6.07;2.20;;;;;;;;;;5107633;28;20063;-65
2023/06/08 05:51:22;;;;;;;8.52;2.47;;;;;;;;;;5112649;28;20070;-65
2023/06/08 05:53:49;;;;;;;7.22;2.88;;;;;;;;;;5102475;28;20116;-65
2023/06/08 05:56:17;;;;;;;7.15;2.25;;;;;;;;;;5082556;28;20082;-66
2023/06/08 05:58:44;;;;;;;8.02;2.65;;;;;;;;;;5107888;28;20044;-64
2023/06/08 06:01:13;;;;;;;4.97;2.30;;;;;;;;;;5106563;28;20417;-65
2023/06/08 06:03:41;;;;;;;7.45;2.20;;;;;;;;;;5107782;27;20721;-64
2023/06/08 06:06:10;;;;;;;7.20;2.33;;;;;;;;;;5111666;28;20135;-65
2023/06/08 06:08:38;;;;;;;6.82;2.47;;;;;;;;;;5104883;28;20043;-64
2023/06/08 06:11:05;;;;;;;6.35;2.15;;;;;;;;;;5107477;28;20397;-64
2023/06/08 06:13:32;;;;;;;6.25;2.60;;;;;;;;;;5092649;28;20120;-64
2023/06/08 06:15:59;;;;;;;8.57;2.70;;;;;;;;;;5102510;28;20483;-64
2023/06/08 06:18:28;;;;;;;8.05;2.53;;;;;;;;;;5108706;28;20432;-65
2023/06/08 06:20:55;;;;;;;7.15;2.97;;;;;;;;;;5111729;28;20427;-64
2023/06/08 06:23:23;;;;;;;5.03;2.28;;;;;;;;;;5110614;28;20050;-64
2023/06/08 06:25:51;;;;;;;5.85;2.13;;;;;;;;;;5112670;28;20080;-65
2023/06/08 06:28:18;;;;;;;8.20;1.95;;;;;;;;;;5112118;28;20450;-64
2023/06/08 06:30:45;;;;;;;7.47;2.08;;;;;;;;;;5105237;28;20052;-65
2023/06/08 06:33:12;;;;;;;6.50;2.05;;;;;;;;;;5111057;27;20565;-64
2023/06/08 06:35:42;;;;;;;6.82;2.15;;;;;;;;;;5106683;28;20051;-65
2023/06/08 06:38:09;;;;;;;5.70;2.08;;;;;;;;;;5109530;28;20402;-64
2023/06/08 06:40:36;;;;;;;7.53;1.75;;;;;;;;;;5111218;28;20579;-64
2023/06/08 06:43:03;;;;;;;3.65;1.60;;;;;;;;;;5112042;28;20039;-64
2023/06/08 06:45:31;;;;;;;5.38;1.90;;;;;;;;;;5112358;28;20077;-64
2023/06/08 06:47:58;;;;;;;6.18;1.73;;;;;;;;;;5111312;28;20462;-65
2023/06/08 06:50:25;;;;;;;7.75;2.00;;;;;;;;;;5112114;27;20104;-64
2023/06/08 06:52:54;;;;;;;4.18;1.48;;;;;;;;;;5111734;27;20140;-65
2023/06/08 06:55:21;;;;;;;4.30;1.88;;;;;;;;;;5100952;28;20473;-64
2023/06/08 06:57:49;;;;;;;3.45;1.67;;;;;;;;;;5106020;28;20048;-62
2023/06/08 07:00:16;;;;;;;5.95;1.92;;;;;;;;;;5106547;28;20071;-61
2023/06/08 07:02:44;;;;;;;7.50;1.80;;;;;;;;;;5112223;28;20047;-62
2023/06/08 07:05:11;;;;;;;5.70;2.05;;;;;;;;;;5111403;28;20047;-62
2023/06/08 07:07:38;;;;;;;4.63;1.40;;;;;;;;;;5106367;28;20039;-61
2023/06/08 07:10:07;;;;;;;4.72;1.90;;;;;;;;;;5108029;28;20947;-62
2023/06/08 07:12:34;;;;;;;5.47;2.05;;;;;;;;;;5109831;28;20051;-62
2023/06/08 07:15:02;;;;;;;4.65;1.83;;;;;;;;;;5100702;28;20533;-62
2023/06/08 07:17:29;;;;;;;4.40;1.90;;;;;;;;;;5102730;28;20040;-61
2023/06/08 07:19:58;;;;;;;7.95;1.52;;;;;;;;;;5108208;28;20048;-62
2023/06/08 07:22:25;;;;;;;7.32;2.22;;;;;;;;;;5102263;28;20514;-61
2023/06/08 07:24:52;;;;;;;5.90;1.98;;;;;;;;;;5111898;27;20636;-62
2023/06/08 07:27:21;;;;;;;4.95;1.90;;;;;;;;;;5110444;28;20048;-62
2023/06/08 07:29:48;;;;;;;5.20;2.03;;;;;;;;;;5108401;27;20063;-62
2023/06/08 07:32:16;;;;;;;5.47;2.38;;;;;;;;;;5106025;28;20108;-62
2023/06/08 07:34:43;;;;;;;5.82;2.50;;;;;;;;;;5109751;27;20100;-62
2023/06/08 07:37:10;;;;;;;6.32;2.40;;;;;;;;;;5108119;28;20063;-61
2023/06/08 07:39:37;;;;;;;6.72;2.75;;;;;;;;;;5109902;28;20048;-62
2023/06/08 07:42:05;;;;;;;7.18;2.60;;;;;;;;;;5111100;28;20421;-62
2023/06/08 07:44:34;;;;;;;6.35;2.80;;;;;;;;;;5112407;27;20083;-62
2023/06/08 07:47:01;;;;;;;8.60;3.15;;;;;;;;;;5105506;28;20054;-62
2023/06/08 07:49:29;;;;;;;5.47;2.42;;;;;;;;;;5108168;28;20078;-61
2023/06/08 07:51:56;;;;;;;4.50;2.05;;;;;;;;;;5108593;27;20052;-62
2023/06/08 07:54:24;;;;;;;5.72;2.28;;;;;;;;;;5107158;28;20047;-62
2023/06/08 07:56:51;;;;;;;4.60;2.10;;;;;;;;;;5104521;28;20059;-62
2023/06/08 07:59:18;;;;;;;7.03;2.70;;;;;;;;;;5104289;28;20449;-61
2023/06/08 08:01:47;;;;;;;6.82;2.90;;;;;;;;;;5109960;28;20058;-62
2023/06/08 08:04:15;;;;;;;4.90;2.67;;;;;;;;;;5101942;28;20047;-61
2023/06/08 08:06:42;;;;;;;7.82;2.20;;;;;;;;;;5109393;28;20047;-61
2023/06/08 08:09:09;;;;;;;6.85;2.50;;;;;;;;;;5108623;27;20055;-62
2023/06/08 08:11:37;;;;;;;7.35;2.50;;;;;;;;;;5109938;28;20047;-62
2023/06/08 08:14:09;;;;;;;9.10;2.78;;;;;;;;;;5109768;28;20057;-62
2023/06/08 08:16:36;;;;;;;7.57;2.22;;;;;;;;;;5096987;28;20846;-62
2023/06/08 08:19:05;;;;;;;4.53;1.85;;;;;;;;;;5104644;28;20036;-62
2023/06/08 08:21:32;;;;;;;4.15;1.70;;;;;;;;;;5108907;28;20491;-62
2023/06/08 08:23:59;;;;;;;7.63;2.55;;;;;;;;;;5107454;28;20048;-62
2023/06/08 08:26:28;;;;;;;4.68;1.98;;;;;;;;;;5104472;27;20391;-62
2023/06/08 08:28:56;;;;;;;4.47;1.70;;;;;;;;;;5109794;28;20048;-62
2023/06/08 08:31:23;;;;;;;5.60;1.95;;;;;;;;;;5109148;28;20512;-62
2023/06/08 08:33:50;;;;;;;5.70;1.80;;;;;;;;;;5103143;28;20051;-62
2023/06/08 08:36:19;;;;;;;5.13;2.22;;;;;;;;;;5105750;28;20082;-61
2023/06/08 08:38:46;;;;;;;7.22;2.08;;;;;;;;;;5106382;28;20552;-62
2023/06/08 08:41:16;;;;;;;5.97;1.80;;;;;;;;;;5106310;28;20054;-62
2023/06/08 08:43:48;;;;;;;8.15;2.05;;;;;;;;;;5105701;27;20046;-62
2023/06/08 08:46:16;;;;;;;8.00;2.00;;;;;;;;;;5107790;28;20048;-62
2023/06/08 08:48:43;;;;;;;4.63;1.70;;;;;;;;;;5108879;28;20044;-62
2023/06/08 08:51:13;;;;;;;3.70;1.65;;;;;;;;;;5105344;28;20509;-62
2023/06/08 08:53:45;;;;;;;7.15;1.92;;;;;;;;;;5106686;28;20047;-62
2023/06/08 08:56:12;;;;;;;8.65;1.92;;;;;;;;;;5107007;28;20048;-62
2023/06/08 08:58:40;;;;;;;7.10;2.05;;;;;;;;;;5108758;28;20478;-62
2023/06/08 09:01:08;;;;;;;5.43;1.83;;;;;;;;;;5107985;28;20406;-62
2023/06/08 09:03:35;;;;;;;6.80;2.15;;;;;;;;;;5108824;28;20091;-62
2023/06/08 09:06:03;;;;;;;5.28;1.83;;;;;;;;;;5094773;28;20055;-62
2023/06/08 09:08:30;;;;;;;8.52;2.00;;;;;;;;;;5110779;28;20055;-62
2023/06/08 09:11:06;;;;;;;5.13;1.70;;;;;;;;;;5105309;28;20055;-62
2023/06/08 09:13:33;;;;;;;5.30;2.03;;;;;;;;;;5109362;28;20499;-62
2023/06/08 09:16:10;;;;;;;5.40;1.77;;;;;;;;;;5105508;28;20122;-62
2023/06/08 09:18:38;;;;;;;7.07;2.20;;;;;;;;;;5103496;28;20204;-62
2023/06/08 09:21:23;;;;;;;5.15;2.33;;;;;;;;;;5108373;27;20058;-62
2023/06/08 09:24:06;;;;;;;6.55;2.00;;;;;;;;;;5102841;28;20043;-62
2023/06/08 09:26:36;;;;;;;6.30;2.25;;;;;;;;;;5108589;28;20520;-62
2023/06/08 09:29:05;;;;;;;4.78;1.90;;;;;;;;;;5107255;28;20062;-62
2023/06/08 09:31:33;;;;;;;6.70;2.38;;;;;;;;;;5103723;28;20486;-62
2023/06/08 09:34:06;;;;;;;9.38;2.50;;;;;;;;;;5102121;28;20134;-62
2023/06/08 09:36:37;;;;;;;6.68;2.20;;;;;;;;;;5104090;28;20083;-62
2023/06/08 09:39:05;;;;;;;5.90;2.00;;;;;;;;;;5108399;28;20479;-62
2023/06/08 09:41:37;;;;;;;7.55;2.38;;;;;;;;;;5106634;28;20074;-62
2023/06/08 09:44:06;;;;;;;5.32;2.83;;;;;;;;;;5103799;28;21098;-62
2023/06/08 09:46:34;;;;;;;4.53;2.10;;;;;;;;;;5104793;28;20066;-62
2023/06/08 09:49:01;;;;;;;7.75;2.65;;;;;;;;;;5100558;28;20055;-62
2023/06/08 09:51:29;;;;;;;7.85;2.53;;;;;;;;;;5104442;28;20048;-62
2023/06/08 09:53:57;;;;;;;4.18;2.17;;;;;;;;;;5085116;28;20052;-62
2023/06/08 09:56:25;;;;;;;6.60;2.75;;;;;;;;;;5103257;28;20047;-62
2023/06/08 09:58:56;;;;;;;8.93;2.00;;;;;;;;;;5106802;28;20462;-62
2023/06/08 10:01:40;;;;;;;7.28;2.45;;;;;;;;;;5109013;28;20411;-62
2023/06/08 10:04:11;;;;;;;6.63;2.63;;;;;;;;;;5101219;28;20062;-62
2023/06/08 10:06:39;;;;;;;4.50;2.50;;;;;;;;;;5107575;28;20048;-62
2023/06/08 10:09:07;;;;;;;5.10;2.50;;;;;;;;;;5094995;28;20048;-62
2023/06/08 10:11:35;;;;;;;8.02;2.70;;;;;;;;;;5109106;28;20458;-62
2023/06/08 10:14:03;;;;;;;5.30;2.60;;;;;;;;;;5107430;28;20063;-62
2023/06/08 10:16:31;;;;;;;5.10;2.67;;;;;;;;;;5106888;28;20506;-63
2023/06/08 10:18:59;;;;;;;4.82;2.60;;;;;;;;;;5102025;28;20525;-62
2023/06/08 10:21:26;;;;;;;10.52;2.67;;;;;;;;;;5102961;28;20063;-62
2023/06/08 10:23:54;;;;;;;7.97;2.80;;;;;;;;;;5106810;28;20054;-62
2023/06/08 10:26:23;;;;;;;7.20;2.55;;;;;;;;;;5107293;28;20046;-62
2023/06/08 10:29:05;;;;;;;7.88;2.53;;;;;;;;;;5082945;28;20052;-63
2023/06/08 10:31:33;;;;;;;7.25;2.90;;;;;;;;;;5103690;28;20079;-62
2023/06/08 10:34:06;;;;;;;5.38;2.47;;;;;;;;;;5107834;28;20051;-62
2023/06/08 10:36:39;;;;;;;8.47;2.57;;;;;;;;;;5106909;28;20051;-62
2023/06/08 10:39:12;;;;;;;4.32;2.30;;;;;;;;;;5108989;28;20567;-62
2023/06/08 10:41:40;;;;;;;6.28;2.75;;;;;;;;;;5106048;28;20094;-62
2023/06/08 10:44:24;;;;;;;6.57;2.70;;;;;;;;;;5104150;28;20040;-62
2023/06/08 10:46:56;;;;;;;6.03;2.47;;;;;;;;;;5106104;28;20513;-62
2023/06/08 10:49:23;;;;;;;5.07;2.28;;;;;;;;;;5110925;28;20083;-62
2023/06/08 10:51:56;;;;;;;4.85;2.30;;;;;;;;;;5112680;27;20040;-62
2023/06/08 10:54:23;;;;;;;8.73;2.57;;;;;;;;;;5109586;27;20100;-62
2023/06/08 10:56:52;;;;;;;3.90;2.25;;;;;;;;;;5110146;28;20297;-62
2023/06/08 10:59:26;;;;;;;4.00;2.20;;;;;;;;;;5110497;27;20050;-62
2023/06/08 11:01:53;;;;;;;4.72;2.25;;;;;;;;;;5105279;28;20103;-62
2023/06/08 11:04:22;;;;;;;4.90;2.13;;;;;;;;;;5105811;28;20490;-62
2023/06/08 11:06:49;;;;;;;8.77;2.80;;;;;;;;;;5103686;28;20051;-63
2023/06/08 11:09:16;;;;;;;5.82;2.13;;;;;;;;;;5099490;28;20399;-63
2023/06/08 11:11:53;;;;;;;4.30;2.10;;;;;;;;;;5110881;28;20051;-63
2023/06/08 11:14:21;;;;;;;4.68;2.00;;;;;;;;;;5092229;28;20051;-62
2023/06/08 11:16:53;;;;;;;5.43;1.85;;;;;;;;;;5106120;28;20051;-62
2023/06/08 11:19:21;;;;;;;5.18;2.20;;;;;;;;;;5102909;28;20055;-63
2023/06/08 11:21:50;;;;;;;4.65;2.35;;;;;;;;;;5107614;27;20051;-63
2023/06/08 11:24:17;;;;;;;4.50;2.28;;;;;;;;;;5109753;28;20462;-63
2023/06/08 11:26:45;;;;;;;4.55;2.17;;;;;;;;;;5110682;28;20509;-62
2023/06/08 11:29:13;;;;;;;6.18;2.60;;;;;;;;;;5088988;28;20065;-63
2023/06/08 11:31:41;;;;;;;4.70;2.45;;;;;;;;;;5110073;28;20101;-63
2023/06/08 11:34:15;;;;;;;5.00;2.60;;;;;;;;;;5108219;28;20064;-62
2023/06/08 11:36:43;;;;;;;8.02;2.42;;;;;;;;;;5104284;28;20109;-63
2023/06/08 11:39:11;;;;;;;8.93;2.22;;;;;;;;;;5109329;28;20051;-63
2023/06/08 11:41:38;;;;;;;3.70;2.08;;;;;;;;;;5106300;28;20091;-63
2023/06/08 11:44:05;;;;;;;4.03;1.95;;;;;;;;;;5110816;27;20044;-63
2023/06/08 11:46:33;;;;;;;5.85;1.77;;;;;;;;;;5108162;27;20044;-63
2023/06/08 11:49:10;;;;;;;2.72;1.60;;;;;;;;;;5109603;28;20079;-63
2023/06/08 11:51:47;;;;;;;3.00;1.60;;;;;;;;;;5103463;28;20079;-63
2023/06/08 11:54:15;;;;;;;3.60;1.75;;;;;;;;;;5106879;28;20044;-63
2023/06/08 11:56:45;;;;;;;5.43;2.03;;;;;;;;;;5108241;28;20069;-63
2023/06/08 11:59:13;;;;;;;4.10;1.63;;;;;;;;;;5108583;28;20105;-63
2023/06/08 12:01:55;;;;;;;3.58;1.63;;;;;;;;;;5090897;28;20050;-63
2023/06/08 12:04:22;;;;;;;2.80;1.63;;;;;;;;;;5108003;28;20047;-63
2023/06/08 12:06:50;;;;;;;4.70;1.80;;;;;;;;;;5100918;28;20411;-63
2023/06/08 12:09:18;;;;;;;5.97;1.70;;;;;;;;;;5107568;28;20414;-66
2023/06/08 12:11:45;;;;;;;4.25;1.80;;;;;;;;;;5099039;28;20399;-62
2023/06/08 12:14:15;;;;;;;5.25;1.70;;;;;;;;;;5090085;28;20056;-62
2023/06/08 12:16:45;;;;;;;4.32;1.92;;;;;;;;;;5109750;28;20048;-63
2023/06/08 12:19:13;;;;;;;6.03;1.70;;;;;;;;;;5109353;28;20502;-62
2023/06/08 12:21:43;;;;;;;4.90;1.70;;;;;;;;;;5110548;28;20036;-62
2023/06/08 12:24:12;;;;;;;4.03;1.45;;;;;;;;;;5107904;28;20487;-62
2023/06/08 12:26:39;;;;;;;5.22;1.85;;;;;;;;;;5106848;28;20055;-62
2023/06/08 12:29:09;;;;;;;3.42;1.75;;;;;;;;;;5110583;28;20136;-63
2023/06/08 12:31:36;;;;;;;3.60;1.65;;;;;;;;;;5108998;28;20402;-63
2023/06/08 12:34:04;;;;;;;3.25;1.83;;;;;;;;;;5110225;28;20046;-62
2023/06/08 12:36:32;;;;;;;6.00;2.05;;;;;;;;;;5109454;28;20059;-63
2023/06/08 12:39:00;;;;;;;5.00;1.85;;;;;;;;;;5108307;28;20040;-63
2023/06/08 12:41:29;;;;;;;3.17;1.80;;;;;;;;;;5100960;28;20410;-63
2023/06/08 12:43:56;;;;;;;4.25;1.90;;;;;;;;;;5108531;28;20086;-63
2023/06/08 12:46:23;;;;;;;4.38;2.30;;;;;;;;;;5108789;28;20051;-62
2023/06/08 12:48:52;;;;;;;5.70;2.10;;;;;;;;;;5109933;28;20652;-63
2023/06/08 12:51:19;;;;;;;4.20;2.05;;;;;;;;;;5107568;27;20075;-62
2023/06/08 12:53:47;;;;;;;5.03;2.20;;;;;;;;;;5106791;28;20059;-63
2023/06/08 12:56:14;;;;;;;5.40;2.70;;;;;;;;;;5106634;28;20048;-62
2023/06/08 12:58:43;;;;;;;3.83;2.20;;;;;;;;;;5110139;28;20066;-62
2023/06/08 13:01:10;;;;;;;4.85;2.70;;;;;;;;;;5109038;28;20492;-62
2023/06/08 13:03:39;;;;;;;3.80;2.50;;;;;;;;;;5097822;28;20055;-62
2023/06/08 13:06:06;;;;;;;4.68;2.50;;;;;;;;;;5106663;28;20093;-63
2023/06/08 13:08:33;;;;;;;4.85;2.40;;;;;;;;;;5107063;28;20044;-63
2023/06/08 13:11:01;;;;;;;4.03;2.10;;;;;;;;;;5104465;28;20043;-63
2023/06/08 13:13:28;;;;;;;5.90;2.45;;;;;;;;;;5108876;28;20040;-63
2023/06/08 13:15:58;;;;;;;5.15;2.60;;;;;;;;;;5101502;27;20418;-62
2023/06/08 13:18:25;;;;;;;4.68;2.72;;;;;;;;;;5109578;28;20044;-63
2023/06/08 13:20:53;;;;;;;7.00;2.80;;;;;;;;;;5107316;28;20044;-63
2023/06/08 13:23:21;;;;;;;5.35;2.70;;;;;;;;;;5109227;28;20482;-63
2023/06/08 13:25:48;;;;;;;3.45;2.38;;;;;;;;;;5103299;28;20063;-63
2023/06/08 13:28:16;;;;;;;3.58;2.50;;;;;;;;;;5108778;28;20081;-63
2023/06/08 13:30:44;;;;;;;5.50;2.50;;;;;;;;;;5093016;28;20051;-63
2023/06/08 13:33:13;;;;;;;4.53;2.10;;;;;;;;;;5108893;28;20079;-63
2023/06/08 13:35:43;;;;;;;6.70;2.50;;;;;;;;;;5108198;27;20407;-63
2023/06/08 13:38:11;;;;;;;7.15;2.40;;;;;;;;;;5105735;28;20127;-60
2023/06/08 13:40:38;;;;;;;7.35;2.10;;;;;;;;;;5106888;28;20092;-60
2023/06/08 13:43:06;;;;;;;7.15;2.40;;;;;;;;;;5095173;28;20048;-60
2023/06/08 13:45:34;;;;;;;5.15;2.35;;;;;;;;;;5108588;28;20067;-61
2023/06/08 13:48:02;;;;;;;3.60;2.40;;;;;;;;;;5107501;28;20035;-60
2023/06/08 13:50:31;;;;;;;5.05;2.50;;;;;;;;;;5104162;28;20043;-62
2023/06/08 13:52:58;;;;;;;3.75;2.17;;;;;;;;;;5102227;28;20059;-62
2023/06/08 13:55:25;;;;;;;5.57;2.35;;;;;;;;;;5104311;28;20044;-62
2023/06/08 13:57:52;;;;;;;8.40;2.70;;;;;;;;;;5104561;28;20083;-62
2023/06/08 14:00:20;;;;;;;4.50;2.60;;;;;;;;;;5099734;28;20051;-62
2023/06/08 14:02:47;;;;;;;7.75;2.58;;;;;;;;;;5106255;28;20479;-62
2023/06/08 14:05:17;;;;;;;3.63;2.13;;;;;;;;;;5108274;28;20067;-63
2023/06/08 14:07:45;;;;;;;3.58;2.25;;;;;;;;;;5100746;28;20531;-63
2023/06/08 14:10:13;;;;;;;7.45;2.33;;;;;;;;;;5109703;28;20039;-62
2023/06/08 14:12:40;;;;;;;8.38;2.47;;;;;;;;;;5107763;28;20051;-62
2023/06/08 14:15:08;;;;;;;4.47;2.40;;;;;;;;;;5109459;28;20055;-62
2023/06/08 14:17:35;;;;;;;4.50;2.33;;;;;;;;;;5091642;28;20055;-62
2023/06/08 14:20:02;;;;;;;5.05;2.45;;;;;;;;;;5106566;28;20047;-63
2023/06/08 14:22:30;;;;;;;5.97;2.13;;;;;;;;;;5109032;27;20491;-62
2023/06/08 14:24:58;;;;;;;4.05;2.20;;;;;;;;;;5112232;28;20043;-63
2023/06/08 14:27:25;;;;;;;3.05;2.22;;;;;;;;;;5107612;28;20356;-63
2023/06/08 14:29:53;;;;;;;4.40;2.53;;;;;;;;;;5094116;28;20058;-62
2023/06/08 14:32:20;;;;;;;5.57;2.90;;;;;;;;;;5112192;28;20039;-62
2023/06/08 14:34:47;;;;;;;4.75;2.65;;;;;;;;;;5105940;28;20047;-63
2023/06/08 14:37:14;;;;;;;5.15;2.80;;;;;;;;;;5112362;28;20055;-62
2023/06/08 14:39:42;;;;;;;7.18;2.88;;;;;;;;;;5111315;28;20044;-63
2023/06/08 14:42:10;;;;;;;5.55;2.60;;;;;;;;;;5106617;27;20044;-62
2023/06/08 14:44:39;;;;;;;7.70;3.00;;;;;;;;;;5112184;28;20047;-62
2023/06/08 14:47:07;;;;;;;6.32;3.03;;;;;;;;;;5107660;28;20059;-63
2023/06/08 14:49:37;;;;;;;10.73;3.25;;;;;;;;;;5111125;28;20048;-63